• Join FlightAware (Why Join?)
  • Login
  • US Flag 
Rudolph Flight #1: Arrived! 
09:47PM EST


 

Airport Tracker/Info


-or-


 

Live Flight TrackerFlight Track Log ✈ ANA651 ✈ 06-May-2013 ✈ RJTT / HND - RJOB / OKJ

Flight Track Log - Related Links

Times and Time Zones

All times are in EDT time to prevent confusion due to time zone crossing. See the ANA651 flight status page for this flight to view local times or setup timezone preferences in your user account.

Time Position Orientation Groundspeed Altitude Reporting Facility
EDT Latitude Longitude Course Direction KTS MPH feet Rate Location/Type
07:05PM 35.3351 137.9187 262° West  Level Estimated
07:06PM 35.3196 137.7950 261° West  Level Estimated
07:07PM 35.3040 137.6713 261° West  Level Estimated
07:08PM 35.2883 137.5477 261° West  Level Estimated
07:09PM 35.2724 137.4241 261° West  Level Estimated
07:10PM 35.2564 137.3006 261° West  Level Estimated
07:11PM 35.2403 137.1772 261° West  Level Estimated
07:12PM 35.2241 137.0537 261° West  Level Estimated
07:13PM 35.2077 136.9304 261° West  Level Estimated
07:14PM 35.1912 136.8071 261° West  Level Estimated
07:15PM 35.1746 136.6838 261° West  Level Estimated
07:16PM 35.1578 136.5606 261° West  Level Estimated
07:17PM 35.1410 136.4374 261° West  Level Estimated
07:18PM 35.1240 136.3143 260° West  Level Estimated
07:19PM 35.1069 136.1913 260° West  Level Estimated
07:20PM 35.0896 136.0683 260° West  Level Estimated
07:21PM 35.0723 135.9453 260° West  Level Estimated
07:22PM 35.0548 135.8224 260° West  Level Estimated
07:23PM 35.0372 135.6996 260° West  Level Estimated
07:24PM 35.0194 135.5768 260° West  Level Estimated
07:25PM 35.0016 135.4540 260° West  Level Estimated
07:26PM 34.9836 135.3313 260° West  Level Estimated
07:27PM 34.9655 135.2087 260° West  Level Estimated
07:28PM 34.9473 135.0861 260° West  Level Estimated
07:29PM 34.9289 134.9636 260° West  Level Estimated
07:30PM 34.9104 134.8411 260° West  Level Estimated
07:31PM 34.8918 134.7187 260° West  Level Estimated
07:32PM 34.8731 134.5963 259° West  Level Estimated
07:33PM 34.8543 134.4740 259° West  Level Estimated
07:34PM 34.8353 134.3518 259° West  Level Estimated
07:35PM 34.8162 134.2296 259° West  Level Estimated
07:36PM 34.7970 134.1074 259° West  Level Estimated
07:37PM 34.7777 133.9854 259° West  Level Estimated
07:38PM 34.7582 133.8633 259° West  Level Estimated
07:39PM 34.7569 133.8553 259° West  Level Estimated
07:40PM 34.7569 133.8553 338° Northwest  Level Estimated
07:41PM 34.7569 133.8553 338° Northwest  Level Estimated
07:42PM 34.7569 133.8553 338° Northwest  Level Estimated
07:43PM 34.7569 133.8553 338° Northwest  Level Estimated
07:44PM 34.7569 133.8553 338° Northwest  Level Estimated
07:45PM 34.7569 133.8553 338° Northwest  Level Estimated
07:46PM 34.7569 133.8553 338° Northwest  Level Estimated
07:47PM 34.7569 133.8553 338° Northwest  Level Estimated